Flight Track Log - Related Links

Times and Time Zones

All times are in EDT time to prevent confusion due to time zone crossing. See the RPA3321 flight status page for this flight to view local times or setup timezone preferences in your user account.

Time Position Orientation Groundspeed Altitude Reporting Facility
EDT Latitude Longitude Course Direction KTS MPH feet Rate Location/Type
Sat 05:51:24 AM 42.7297 -73.8081 180° South 147 169 1,500  Level Boston Center
Sat 05:52:44 AM 42.7042 -73.8697 241° Southwest 217 250 3,900 2,100 Climbing Boston Center
Sat 05:53:00 AM 42.5116 -74.0128 171° South  Level Estimated
Sat 05:53:44 AM 42.6411 -73.8908 194° South 186 214 6,400  Level Boston Center
Sat 05:54:00 AM 42.4324 -74.0827 180° South  Level Estimated
Sat 05:54:44 AM 42.5750 -73.8639 163° South 208 239 9,200  Level Boston Center
Sat 05:55:00 AM 42.3531 -74.1524 170° South  Level Estimated
Sat 05:55:44 AM 42.4856 -73.8367 167° South 290 334 11,500  Level Boston Center
Sat 05:56:00 AM 42.2738 -74.2220 180° South  Level Estimated
Sat 05:56:44 AM 42.4047 -73.8094 166° South 331 381 13,700  Level Boston Center
Sat 05:57:44 AM 42.3028 -73.7764 167° South 343 395 16,200 2,100 Climbing Boston Center
Sat 05:58:44 AM 42.2136 -73.7464 166° South 359 413 17,900 1,500 Climbing Boston Center
Sat 05:59:44 AM 42.1036 -73.7133 167° South 370 426 19,200 1,500 Climbing Boston Center
Sat 06:00:44 AM 41.9956 -73.6858 169° South 386 444 20,900 1,700 Climbing Boston Center
Sat 06:01:44 AM 41.8906 -73.7397 201° Southwest 391 450 22,600 1,527 Climbing Boston Center
Sat 06:03:29 AM 41.7025 -73.8522 204° Southwest 403 464 25,100 1,293 Climbing New York Center
Sat 06:04:31 AM 41.6136 -73.9064 204° Southwest 415 478 26,200 1,328 Climbing New York Center
Sat 06:05:31 AM 41.4822 -73.9861 204° Southwest 428 493 27,800 915 Climbing New York Center
Sat 06:06:29 AM 41.3658 -74.0578 205° Southwest 446 513 28,000 100 Climbing New York Center
Sat 06:07:31 AM 41.2450 -74.1319 205° Southwest 462 532 28,000  Level New York Center
Sat 06:08:29 AM 41.1475 -74.1906 204° Southwest 475 547 28,000  Level New York Center
Sat 06:09:29 AM 41.0142 -74.2636 202° Southwest 481 554 28,000  Level New York Center
Sat 06:10:30 AM 40.8933 -74.3369 205° Southwest 481 554 28,000  Level New York Center
Sat 06:11:31 AM 40.7861 -74.4353 215° Southwest 481 554 28,000  Level New York Center
Sat 06:12:31 AM 40.7006 -74.5650 229° Southwest 469 540 28,000 -504 Level New York Center
Sat 06:13:30 AM 40.6133 -74.6886 227° Southwest 469 540 27,000 -1,059 Descending New York Center
Sat 06:14:30 AM 40.5300 -74.8122 228° Southwest 469 540 25,900 -1,140 Descending New York Center
Sat 06:15:31 AM 40.4444 -74.9325 227° Southwest 463 533 24,700 -1,091 Descending New York Center
Sat 06:16:31 AM 40.3631 -75.0503 228° Southwest 448 516 23,700 -1,068 Descending New York Center
Sat 06:17:29 AM 40.2819 -75.1622 226° Southwest 443 510 22,600 -1,109 Descending New York Center
Sat 06:18:30 AM 40.2003 -75.2794 228° Southwest 443 510 21,500 -1,041 Descending New York Center
Sat 06:19:30 AM 40.1231 -75.3939 229° Southwest 437 503 20,500 -750 Descending New York Center
Sat 06:20:30 AM 40.0389 -75.5156 228° Southwest 424 488 20,000 -248 Descending New York Center
Sat 06:21:31 AM 39.9656 -75.6297 230° Southwest 424 488 20,000  Level New York Center
Sat 06:22:29 AM 39.8942 -75.7411 230° Southwest 413 475 20,000  Level New York Center
Sat 06:24:05 AM 39.7833 -75.9167 231° Southwest 403 464 20,000 -269 Level Potomac TRACON
Sat 06:25:05 AM 39.7000 -76.0333 227° Southwest 406 467 19,300 -1,621 Descending Potomac TRACON
Sat 06:26:59 AM 39.5667 -76.2333 229° Southwest 386 444 15,300 -2,107 Descending Potomac TRACON
Sat 06:27:53 AM 39.5000 -76.3333 229° Southwest 369 425 13,400 -1,833 Descending Potomac TRACON
Sat 06:28:47 AM 39.4500 -76.4167 232° Southwest 360 414 12,000 -778 Descending Potomac TRACON
Sat 06:29:41 AM 39.3833 -76.4833 218° Southwest 359 413 12,000  Level Potomac TRACON
Sat 06:30:41 AM 39.3000 -76.5500 212° Southwest 351 404 12,000 -474 Level Potomac TRACON
Sat 06:31:35 AM 39.2333 -76.6167 218° Southwest 313 360 11,100 -1,053 Descending Potomac TRACON
Sat 06:32:35 AM 39.1667 -76.6833 218° Southwest 300 345 10,000 -550 Descending Potomac TRACON
Sat 06:33:35 AM 39.1000 -76.7500 218° Southwest 297 342 10,000 -105 Level Potomac TRACON
Sat 06:34:29 AM 39.0333 -76.8167 218° Southwest 298 343 9,800 -1,043 Descending Potomac TRACON
Sat 06:35:30 AM 38.9833 -76.8833 226° Southwest 294 338 8,000 -1,785 Descending Potomac TRACON
Sat 06:36:30 AM 38.9167 -76.9333 210° Southwest 285 328 6,200 -1,684 Descending Potomac TRACON
Sat 06:37:24 AM 38.8500 -76.9500 191° South 271 312 4,800 -1,632 Descending Potomac TRACON
Sat 06:38:24 AM 38.7833 -76.9500 180° South 261 300 3,100 -1,200 Descending Potomac TRACON
Sat 06:39:24 AM 38.7167 -76.9333 169° South 251 289 2,400 -350 Descending Potomac TRACON
Sat 06:40:24 AM 38.6500 -76.9667 201° Southwest 272 313 2,400 50 Level Potomac TRACON
Sat 06:41:24 AM 38.6833 -77.0167 311° West 196 226 2,500 -50 Climbing Potomac TRACON
Sat 06:42:24 AM 38.7333 -77.0333 345° North 180 207 2,300 -200 Descending Potomac TRACON

Login

Don't have an account? Register now (free) for customized features, flight alerts, and more!